createdAt,value
2023-04-25T00:01:25.181Z,100.00
2023-04-25T00:03:53.862Z,100.00
2023-04-25T00:06:22.215Z,100.00
2023-04-25T00:08:50.219Z,100.00
2023-04-25T00:11:18.168Z,100.00
2023-04-25T00:13:47.623Z,100.00
2023-04-25T00:16:16.577Z,100.00
2023-04-25T00:18:44.692Z,100.00
2023-04-25T00:21:12.657Z,100.00
2023-04-25T00:23:40.601Z,100.00
2023-04-25T00:26:08.706Z,100.00
2023-04-25T00:28:36.644Z,100.00
2023-04-25T00:31:06.007Z,100.00
2023-04-25T00:33:33.977Z,100.00
2023-04-25T00:36:01.952Z,100.00
2023-04-25T00:38:29.893Z,100.00
2023-04-25T00:40:58.659Z,100.00
2023-04-25T00:43:27.583Z,100.00
2023-04-25T00:45:56.891Z,100.00
2023-04-25T00:48:26.233Z,100.00
2023-04-25T00:50:55.228Z,100.00
2023-04-25T00:53:23.295Z,100.00
2023-04-25T00:55:51.993Z,100.00
2023-04-25T00:58:19.996Z,100.00
2023-04-25T01:00:48.229Z,100.00
2023-04-25T01:03:17.389Z,100.00
2023-04-25T01:05:46.912Z,100.00
2023-04-25T01:08:14.925Z,100.00
2023-04-25T01:10:42.869Z,100.00
2023-04-25T01:13:10.828Z,100.00
2023-04-25T01:15:38.811Z,100.00
2023-04-25T01:18:07.339Z,100.00
2023-04-25T01:20:35.684Z,100.00
2023-04-25T01:23:05.048Z,100.00
2023-04-25T01:25:33.074Z,100.00
2023-04-25T01:28:01.133Z,100.00
2023-04-25T01:30:29.448Z,100.00
2023-04-25T01:32:57.655Z,100.00
2023-04-25T01:35:26.051Z,100.00
2023-04-25T01:37:53.963Z,100.00
2023-04-25T01:40:23.365Z,100.00
2023-04-25T01:42:51.302Z,100.00
2023-04-25T01:45:19.267Z,100.00
2023-04-25T01:47:49.983Z,100.00
2023-04-25T01:50:18.495Z,100.00
2023-04-25T01:52:46.472Z,100.00
2023-04-25T01:55:14.441Z,100.00
2023-04-25T01:57:43.730Z,100.00
2023-04-25T02:00:13.125Z,100.00
2023-04-25T02:02:41.276Z,100.00
2023-04-25T02:05:09.823Z,100.00
2023-04-25T02:07:37.823Z,100.00
2023-04-25T02:10:06.357Z,100.00
2023-04-25T02:12:34.352Z,100.00
2023-04-25T02:15:03.678Z,100.00
2023-04-25T02:17:32.784Z,100.00
2023-04-25T02:20:00.827Z,100.00
2023-04-25T02:22:31.266Z,100.00
2023-04-25T02:24:59.209Z,100.00
2023-04-25T02:27:27.217Z,100.00
2023-04-25T02:29:55.216Z,100.00
2023-04-25T02:32:24.554Z,100.00
2023-04-25T02:34:52.494Z,100.00
2023-04-25T02:37:20.677Z,100.00
2023-04-25T02:39:48.698Z,100.00
2023-04-25T02:42:16.658Z,100.00
2023-04-25T02:44:44.669Z,100.00
2023-04-25T02:47:12.635Z,100.00
2023-04-25T02:49:42.006Z,100.00
2023-04-25T02:52:10.046Z,100.00
2023-04-25T02:54:37.966Z,100.00
2023-04-25T02:57:07.248Z,100.00
2023-04-25T02:59:35.337Z,100.00
2023-04-25T03:02:03.330Z,100.00
2023-04-25T03:04:31.307Z,100.00
2023-04-25T03:07:00.666Z,100.00
2023-04-25T03:09:28.711Z,100.00
2023-04-25T03:11:56.629Z,100.00
2023-04-25T03:14:24.526Z,100.00
2023-04-25T03:16:52.563Z,100.00
2023-04-25T03:19:21.423Z,100.00
2023-04-25T03:21:49.360Z,100.00
2023-04-25T03:24:18.690Z,100.00
2023-04-25T03:26:46.641Z,100.00
2023-04-25T03:29:14.562Z,100.00
2023-04-25T03:31:42.497Z,100.00
2023-04-25T03:34:10.568Z,100.00
2023-04-25T03:36:40.470Z,100.00
2023-04-25T03:39:09.893Z,100.00
2023-04-25T03:41:39.237Z,100.00
2023-04-25T03:44:07.166Z,100.00
2023-04-25T03:46:35.115Z,100.00
2023-04-25T03:49:03.095Z,100.00
2023-04-25T03:51:32.064Z,100.00
2023-04-25T03:54:00.004Z,100.00
2023-04-25T03:56:28.011Z,100.00
2023-04-25T03:58:57.374Z,100.00
2023-04-25T04:01:25.305Z,100.00
2023-04-25T04:03:53.682Z,100.00
2023-04-25T04:06:22.232Z,100.00
2023-04-25T04:08:50.259Z,100.00
2023-04-25T04:11:18.238Z,100.00
2023-04-25T04:13:46.337Z,100.00
2023-04-25T04:16:16.001Z,100.00
2023-04-25T04:18:43.919Z,100.00
2023-04-25T04:21:11.834Z,100.00
2023-04-25T04:23:40.010Z,100.00
2023-04-25T04:26:08.290Z,100.00
2023-04-25T04:28:36.802Z,100.00
2023-04-25T04:31:05.134Z,100.00
2023-04-25T04:33:34.484Z,100.00
2023-04-25T04:36:03.734Z,100.00
2023-04-25T04:38:32.082Z,100.00
2023-04-25T04:41:00.017Z,100.00
2023-04-25T04:43:29.642Z,100.00
2023-04-25T04:45:58.242Z,100.00
2023-04-25T04:48:26.315Z,100.00
2023-04-25T04:50:55.830Z,100.00
2023-04-25T04:53:23.791Z,100.00
2023-04-25T04:55:51.766Z,100.00
2023-04-25T04:58:19.752Z,100.00
2023-04-25T05:00:47.987Z,100.00
2023-04-25T05:03:16.291Z,100.00
2023-04-25T05:05:44.312Z,100.00
2023-04-25T05:08:13.637Z,100.00
2023-04-25T05:10:42.680Z,100.00
2023-04-25T05:13:10.613Z,100.00
2023-04-25T05:15:38.555Z,100.00
2023-04-25T05:18:06.634Z,100.00
2023-04-25T05:20:34.633Z,100.00
2023-04-25T05:23:02.602Z,100.00
2023-04-25T05:25:31.948Z,100.00
2023-04-25T05:27:59.904Z,100.00
2023-04-25T05:30:27.849Z,100.00
2023-04-25T05:32:55.973Z,100.00
2023-04-25T05:35:23.927Z,100.00
2023-04-25T05:37:51.912Z,100.00
2023-04-25T05:40:19.833Z,100.00
2023-04-25T05:42:49.198Z,100.00
2023-04-25T05:45:18.610Z,100.00
2023-04-25T05:47:46.640Z,100.00
2023-04-25T05:50:14.620Z,100.00
2023-04-25T05:52:42.552Z,100.00
2023-04-25T05:55:11.232Z,100.00
2023-04-25T05:57:42.412Z,100.00
2023-04-25T06:00:14.035Z,100.00
2023-04-25T06:02:42.238Z,100.00
2023-04-25T06:05:11.316Z,97.18
2023-04-25T06:07:39.466Z,88.70
2023-04-25T06:10:09.065Z,76.68
2023-04-25T06:12:37.291Z,67.22
2023-04-25T06:15:16.535Z,56.63
2023-04-25T06:17:55.187Z,56.72
2023-04-25T06:20:25.244Z,60.19
2023-04-25T06:22:53.697Z,63.52
2023-04-25T06:25:22.112Z,66.46
2023-04-25T06:27:50.199Z,69.14
2023-04-25T06:30:19.505Z,67.86
2023-04-25T06:32:47.472Z,75.35
2023-04-25T06:35:17.045Z,82.73
2023-04-25T06:37:44.980Z,83.84
2023-04-25T06:40:13.098Z,88.14
2023-04-25T06:42:41.039Z,92.67
2023-04-25T06:45:10.082Z,82.95
2023-04-25T06:47:38.228Z,76.76
2023-04-25T06:50:07.517Z,71.91
2023-04-25T06:52:36.882Z,66.85
2023-04-25T06:55:06.039Z,58.95
2023-04-25T06:57:33.977Z,58.92
2023-04-25T07:00:02.585Z,60.85
2023-04-25T07:02:30.813Z,64.66
2023-04-25T07:05:00.898Z,67.67
2023-04-25T07:07:28.861Z,69.93
2023-04-25T07:09:58.211Z,72.47
2023-04-25T07:12:26.185Z,80.43
2023-04-25T07:14:54.105Z,82.12
2023-04-25T07:17:22.062Z,91.90
2023-04-25T07:19:49.958Z,92.87
2023-04-25T07:22:17.954Z,93.70
2023-04-25T07:24:49.635Z,93.17
2023-04-25T07:27:19.166Z,90.70
2023-04-25T07:29:47.439Z,89.67
2023-04-25T07:32:15.416Z,86.44
2023-04-25T07:34:43.458Z,80.55
2023-04-25T07:37:11.504Z,77.95
2023-04-25T07:39:39.457Z,73.42
2023-04-25T07:42:09.015Z,75.40
2023-04-25T07:44:39.765Z,65.29
2023-04-25T07:47:09.108Z,61.58
2023-04-25T07:49:37.066Z,57.76
2023-04-25T07:52:05.483Z,55.32
2023-04-25T07:54:33.491Z,54.12
2023-04-25T07:57:01.521Z,50.72
2023-04-25T07:59:30.329Z,53.88
2023-04-25T08:01:59.785Z,55.72
2023-04-25T08:04:27.825Z,52.26
2023-04-25T08:06:55.935Z,55.84
2023-04-25T08:09:23.936Z,59.14
2023-04-25T08:11:51.913Z,54.28
2023-04-25T08:14:19.806Z,57.05
2023-04-25T08:16:47.733Z,55.14
2023-04-25T08:19:17.075Z,52.42
2023-04-25T08:21:45.248Z,48.74
2023-04-25T08:24:13.188Z,50.68
2023-04-25T08:26:42.266Z,48.51
2023-04-25T08:29:10.214Z,54.92
2023-04-25T08:31:38.917Z,56.01
2023-04-25T08:34:06.987Z,54.99
2023-04-25T08:36:39.929Z,54.40
2023-04-25T08:39:08.286Z,53.96
2023-04-25T08:41:36.513Z,56.82
2023-04-25T08:44:04.606Z,53.83
2023-04-25T08:46:33.181Z,54.27
2023-04-25T08:49:03.037Z,53.62
2023-04-25T08:51:33.172Z,51.22
2023-04-25T08:54:12.872Z,49.21
2023-04-25T08:56:48.010Z,48.21
2023-04-25T08:59:16.024Z,50.31
2023-04-25T09:01:43.950Z,51.42
2023-04-25T09:04:12.001Z,53.83
2023-04-25T09:06:40.028Z,56.28
2023-04-25T09:09:11.805Z,56.71
2023-04-25T09:11:39.778Z,58.10
2023-04-25T09:14:17.210Z,55.68
2023-04-25T09:17:05.871Z,55.70
2023-04-25T09:19:40.470Z,53.25
2023-04-25T09:22:09.301Z,54.17
2023-04-25T09:24:40.097Z,52.99
2023-04-25T09:27:08.428Z,49.44
2023-04-25T09:29:37.261Z,49.66
2023-04-25T09:32:21.280Z,50.10
2023-04-25T09:34:52.807Z,47.49
2023-04-25T09:37:21.763Z,50.71
2023-04-25T09:39:51.583Z,50.25
2023-04-25T09:42:19.763Z,49.12
2023-04-25T09:44:47.967Z,50.15
2023-04-25T09:47:17.531Z,50.08
2023-04-25T09:49:45.664Z,48.76
2023-04-25T09:52:16.433Z,48.59
2023-04-25T09:54:44.399Z,48.20
2023-04-25T09:57:17.515Z,49.56
2023-04-25T09:59:46.639Z,51.39
2023-04-25T10:02:15.397Z,53.12
2023-04-25T10:04:43.477Z,56.70
2023-04-25T10:07:11.560Z,57.55
2023-04-25T10:09:40.566Z,61.73
2023-04-25T10:12:09.075Z,66.58
2023-04-25T10:14:38.418Z,70.46
2023-04-25T10:17:06.315Z,73.48
2023-04-25T10:19:34.243Z,85.23
2023-04-25T10:22:08.146Z,100.00
2023-04-25T10:24:36.472Z,100.00
2023-04-25T10:27:04.455Z,100.00
2023-04-25T10:29:32.623Z,100.00
2023-04-25T10:32:02.022Z,100.00
2023-04-25T10:34:40.980Z,100.00
2023-04-25T10:37:11.164Z,100.00
2023-04-25T10:39:40.796Z,100.00
2023-04-25T10:42:09.150Z,100.00
2023-04-25T10:44:37.130Z,100.00
2023-04-25T10:47:07.574Z,100.00
2023-04-25T10:49:36.318Z,100.00
2023-04-25T10:52:18.043Z,100.00
2023-04-25T10:54:48.808Z,100.00
2023-04-25T10:57:30.817Z,100.00
2023-04-25T11:00:01.982Z,100.00
2023-04-25T11:02:31.843Z,100.00
2023-04-25T11:04:59.886Z,100.00
2023-04-25T11:07:32.893Z,100.00
2023-04-25T11:10:01.071Z,100.00
2023-04-25T11:12:29.027Z,100.00
2023-04-25T11:15:02.200Z,100.00
2023-04-25T11:17:32.163Z,100.00
2023-04-25T11:20:00.284Z,100.00
2023-04-25T11:22:28.823Z,100.00
2023-04-25T11:24:56.778Z,100.00
2023-04-25T11:27:25.841Z,100.00
2023-04-25T11:29:53.796Z,100.00
2023-04-25T11:32:23.287Z,100.00
2023-04-25T11:34:54.722Z,100.00
2023-04-25T11:37:22.648Z,100.00
2023-04-25T11:39:50.558Z,100.00
2023-04-25T11:42:18.521Z,100.00
2023-04-25T11:44:46.471Z,100.00
2023-04-25T11:47:14.425Z,100.00
2023-04-25T11:49:42.594Z,100.00
2023-04-25T11:52:12.091Z,100.00
2023-04-25T11:54:40.224Z,100.00
2023-04-25T11:57:08.183Z,91.57
2023-04-25T11:59:36.101Z,73.81
2023-04-25T12:02:04.056Z,70.82
2023-04-25T12:04:32.892Z,71.88
2023-04-25T12:07:02.666Z,62.98
2023-04-25T12:09:32.801Z,58.66
2023-04-25T12:12:03.819Z,60.23
2023-04-25T12:14:33.403Z,51.82
2023-04-25T12:17:01.990Z,48.20
2023-04-25T12:19:34.492Z,49.25
2023-04-25T12:22:04.188Z,49.02
2023-04-25T12:24:38.690Z,50.46
2023-04-25T12:27:09.393Z,52.59
2023-04-25T12:29:49.269Z,54.06
2023-04-25T12:32:18.167Z,58.26
2023-04-25T12:34:46.180Z,62.13
2023-04-25T12:37:14.244Z,65.25
2023-04-25T12:39:43.558Z,64.05
2023-04-25T12:42:13.040Z,69.05
2023-04-25T12:44:41.493Z,75.60
2023-04-25T12:47:09.532Z,79.33
2023-04-25T12:49:37.576Z,83.82
2023-04-25T12:52:05.568Z,84.75
2023-04-25T12:54:33.576Z,83.09
2023-04-25T12:57:04.142Z,82.98
2023-04-25T12:59:32.278Z,84.92
2023-04-25T13:02:00.411Z,83.68
2023-04-25T13:04:28.789Z,85.75
2023-04-25T13:06:57.056Z,92.05
2023-04-25T13:09:24.960Z,99.53
2023-04-25T13:11:54.881Z,96.87
2023-04-25T13:14:26.492Z,100.00
2023-04-25T13:16:55.344Z,100.00
2023-04-25T13:19:23.567Z,100.00
2023-04-25T13:21:51.698Z,100.00
2023-04-25T13:24:19.819Z,100.00
2023-04-25T13:26:47.768Z,100.00
2023-04-25T13:29:15.760Z,100.00
2023-04-25T13:31:45.101Z,100.00
2023-04-25T13:34:13.659Z,100.00
2023-04-25T13:36:41.674Z,100.00
2023-04-25T13:39:09.701Z,100.00
2023-04-25T13:41:37.875Z,100.00
2023-04-25T13:44:06.013Z,100.00
2023-04-25T13:46:45.738Z,100.00
2023-04-25T13:49:16.793Z,100.00
2023-04-25T13:51:44.855Z,100.00
2023-04-25T13:54:12.808Z,100.00
2023-04-25T13:56:43.271Z,100.00
2023-04-25T13:59:11.490Z,100.00
2023-04-25T14:01:39.468Z,100.00
2023-04-25T14:04:07.523Z,100.00
2023-04-25T14:06:36.974Z,100.00
2023-04-25T14:09:05.786Z,100.00
2023-04-25T14:11:33.846Z,100.00
2023-04-25T14:14:01.783Z,100.00
2023-04-25T14:16:29.893Z,100.00
2023-04-25T14:18:58.906Z,100.00
2023-04-25T14:21:28.017Z,100.00
2023-04-25T14:23:57.328Z,100.00
2023-04-25T14:26:25.328Z,100.00
2023-04-25T14:28:53.566Z,100.00
2023-04-25T14:31:22.127Z,100.00
2023-04-25T14:33:50.306Z,100.00
2023-04-25T14:36:18.364Z,100.00
2023-04-25T14:38:46.711Z,100.00
2023-04-25T14:41:16.621Z,100.00
2023-04-25T14:43:46.043Z,100.00
2023-04-25T14:46:14.135Z,100.00
2023-04-25T14:48:42.248Z,100.00
2023-04-25T14:51:10.339Z,100.00
2023-04-25T14:53:38.318Z,100.00
2023-04-25T14:56:06.986Z,100.00
2023-04-25T14:58:36.299Z,100.00
2023-04-25T15:01:04.262Z,100.00
2023-04-25T15:03:33.150Z,100.00
2023-04-25T15:06:01.392Z,100.00
2023-04-25T15:08:29.314Z,100.00
2023-04-25T15:10:57.317Z,100.00
2023-04-25T15:13:25.822Z,100.00
2023-04-25T15:15:55.313Z,100.00
2023-04-25T15:18:24.712Z,100.00
2023-04-25T15:20:52.914Z,100.00
2023-04-25T15:23:20.980Z,100.00
2023-04-25T15:25:49.335Z,100.00
2023-04-25T15:28:17.547Z,100.00
2023-04-25T15:30:45.998Z,100.00
2023-04-25T15:33:16.117Z,100.00
2023-04-25T15:35:44.181Z,100.00
2023-04-25T15:38:12.423Z,100.00
2023-04-25T15:40:40.397Z,100.00
2023-04-25T15:43:11.538Z,100.00
2023-04-25T15:45:39.497Z,100.00
2023-04-25T15:48:08.114Z,100.00
2023-04-25T15:50:37.576Z,100.00
2023-04-25T15:53:07.260Z,100.00
2023-04-25T15:55:36.359Z,100.00
2023-04-25T15:58:04.339Z,100.00
2023-04-25T16:00:34.974Z,100.00
2023-04-25T16:03:03.238Z,100.00
2023-04-25T16:05:31.459Z,100.00
2023-04-25T16:08:00.853Z,100.00
2023-04-25T16:10:28.843Z,100.00
2023-04-25T16:12:56.796Z,100.00
2023-04-25T16:15:24.830Z,100.00
2023-04-25T16:17:52.838Z,100.00
2023-04-25T16:20:20.798Z,100.00
2023-04-25T16:22:48.783Z,100.00
2023-04-25T16:25:18.352Z,100.00
2023-04-25T16:27:46.288Z,100.00
2023-04-25T16:30:15.344Z,100.00
2023-04-25T16:32:45.259Z,100.00
2023-04-25T16:35:13.502Z,100.00
2023-04-25T16:37:41.457Z,100.00
2023-04-25T16:40:10.163Z,100.00
2023-04-25T16:42:39.547Z,100.00
2023-04-25T16:45:09.085Z,100.00
2023-04-25T16:47:37.377Z,100.00
2023-04-25T16:50:06.052Z,100.00
2023-04-25T16:52:34.013Z,100.00
2023-04-25T16:55:01.916Z,100.00
2023-04-25T16:57:29.825Z,100.00
2023-04-25T16:59:59.125Z,100.00
2023-04-25T17:02:27.297Z,100.00
2023-04-25T17:04:55.362Z,100.00
2023-04-25T17:07:24.659Z,100.00
2023-04-25T17:09:52.622Z,100.00
2023-04-25T17:12:20.765Z,100.00
2023-04-25T17:14:48.678Z,100.00
2023-04-25T17:17:18.854Z,100.00
2023-04-25T17:19:47.143Z,100.00
2023-04-25T17:22:15.068Z,100.00
2023-04-25T17:24:43.153Z,100.00
2023-04-25T17:27:11.882Z,100.00
2023-04-25T17:29:39.856Z,100.00
2023-04-25T17:32:07.901Z,100.00
2023-04-25T17:34:37.620Z,100.00
2023-04-25T17:37:05.974Z,100.00
2023-04-25T17:39:34.067Z,100.00
2023-04-25T17:42:02.501Z,100.00
2023-04-25T17:44:30.491Z,100.00
2023-04-25T17:46:58.469Z,100.00
2023-04-25T17:49:26.404Z,100.00
2023-04-25T17:51:55.866Z,100.00
2023-04-25T17:54:24.654Z,100.00
2023-04-25T17:56:53.016Z,100.00
2023-04-25T17:59:21.043Z,100.00
2023-04-25T18:01:49.016Z,100.00
2023-04-25T18:04:17.635Z,100.00
2023-04-25T18:06:45.595Z,100.00
2023-04-25T18:09:18.208Z,100.00
2023-04-25T18:11:46.473Z,100.00
2023-04-25T18:14:15.427Z,100.00
2023-04-25T18:16:43.470Z,100.00
2023-04-25T18:19:15.598Z,100.00
2023-04-25T18:21:45.381Z,100.00
2023-04-25T18:24:17.133Z,100.00
2023-04-25T18:26:45.081Z,100.00
2023-04-25T18:29:29.051Z,100.00
2023-04-25T18:32:00.848Z,100.00
2023-04-25T18:34:28.878Z,100.00
2023-04-25T18:36:57.021Z,100.00
2023-04-25T18:39:27.444Z,100.00
2023-04-25T18:42:04.368Z,100.00
2023-04-25T18:44:36.497Z,100.00
2023-04-25T18:47:04.607Z,100.00
2023-04-25T18:49:32.534Z,100.00
2023-04-25T18:52:00.924Z,100.00
2023-04-25T18:54:30.458Z,100.00
2023-04-25T18:57:00.985Z,100.00
2023-04-25T18:59:28.983Z,100.00
2023-04-25T19:01:56.943Z,100.00
2023-04-25T19:04:25.077Z,100.00
2023-04-25T19:06:54.259Z,100.00
2023-04-25T19:09:22.190Z,100.00
2023-04-25T19:11:51.479Z,100.00
2023-04-25T19:14:19.461Z,100.00
2023-04-25T19:16:47.518Z,100.00
2023-04-25T19:19:15.636Z,100.00
2023-04-25T19:21:43.549Z,100.00
2023-04-25T19:24:11.865Z,100.00
2023-04-25T19:26:39.981Z,100.00
2023-04-25T19:29:10.308Z,100.00
2023-04-25T19:31:38.766Z,100.00
2023-04-25T19:34:07.087Z,100.00
2023-04-25T19:36:35.136Z,100.00
2023-04-25T19:39:07.427Z,100.00
2023-04-25T19:41:36.382Z,100.00
2023-04-25T19:44:04.735Z,100.00
2023-04-25T19:46:34.198Z,100.00
2023-04-25T19:49:03.146Z,100.00
2023-04-25T19:51:32.056Z,100.00
2023-04-25T19:54:00.026Z,100.00
2023-04-25T19:56:28.090Z,100.00
2023-04-25T19:58:58.250Z,100.00
2023-04-25T20:01:26.396Z,100.00
2023-04-25T20:03:56.610Z,100.00
2023-04-25T20:06:24.810Z,100.00
2023-04-25T20:08:54.368Z,100.00
2023-04-25T20:11:22.566Z,100.00
2023-04-25T20:13:50.711Z,100.00
2023-04-25T20:16:20.540Z,100.00
2023-04-25T20:18:48.701Z,100.00
2023-04-25T20:21:18.237Z,100.00
2023-04-25T20:23:46.257Z,100.00
2023-04-25T20:26:14.183Z,100.00
2023-04-25T20:28:42.835Z,100.00
2023-04-25T20:31:10.998Z,100.00
2023-04-25T20:33:39.076Z,100.00
2023-04-25T20:36:07.763Z,100.00
2023-04-25T20:38:37.114Z,100.00
2023-04-25T20:41:05.055Z,100.00
2023-04-25T20:43:33.462Z,100.00
2023-04-25T20:46:01.493Z,100.00
2023-04-25T20:48:29.503Z,100.00
2023-04-25T20:50:58.614Z,100.00
2023-04-25T20:53:26.544Z,100.00
2023-04-25T20:55:55.849Z,100.00
2023-04-25T20:58:23.824Z,100.00
2023-04-25T21:00:51.874Z,100.00
2023-04-25T21:03:20.850Z,100.00
2023-04-25T21:05:48.941Z,100.00
2023-04-25T21:08:16.929Z,100.00
2023-04-25T21:10:44.880Z,100.00
2023-04-25T21:13:14.262Z,100.00
2023-04-25T21:15:42.234Z,100.00
2023-04-25T21:18:10.228Z,100.00
2023-04-25T21:20:38.298Z,100.00
2023-04-25T21:23:06.245Z,100.00
2023-04-25T21:25:34.211Z,100.00
2023-04-25T21:28:02.914Z,100.00
2023-04-25T21:30:32.756Z,100.00
2023-04-25T21:33:00.882Z,100.00
2023-04-25T21:35:29.187Z,100.00
2023-04-25T21:37:57.170Z,100.00
2023-04-25T21:40:25.159Z,100.00
2023-04-25T21:42:53.600Z,100.00
2023-04-25T21:45:21.826Z,100.00
2023-04-25T21:47:51.773Z,100.00
2023-04-25T21:50:19.964Z,100.00
2023-04-25T21:52:48.313Z,100.00
2023-04-25T21:55:16.563Z,100.00
2023-04-25T21:57:44.510Z,100.00
2023-04-25T22:00:24.769Z,100.00
2023-04-25T22:02:55.374Z,100.00
2023-04-25T22:05:24.059Z,100.00
2023-04-25T22:07:52.163Z,100.00
2023-04-25T22:10:20.210Z,100.00
2023-04-25T22:12:50.801Z,100.00
2023-04-25T22:15:19.366Z,100.00
2023-04-25T22:17:47.458Z,100.00
2023-04-25T22:20:17.186Z,100.00
2023-04-25T22:22:45.295Z,100.00
2023-04-25T22:25:13.257Z,100.00
2023-04-25T22:27:43.606Z,100.00
2023-04-25T22:30:13.105Z,100.00
2023-04-25T22:32:41.124Z,100.00
2023-04-25T22:35:10.486Z,100.00
2023-04-25T22:37:40.211Z,100.00
2023-04-25T22:40:09.349Z,100.00
2023-04-25T22:42:40.886Z,100.00
2023-04-25T22:45:09.767Z,100.00
2023-04-25T22:47:37.835Z,100.00
2023-04-25T22:50:08.689Z,100.00
2023-04-25T22:52:36.720Z,100.00
2023-04-25T22:55:07.032Z,100.00
2023-04-25T22:57:38.269Z,100.00
2023-04-25T23:00:15.252Z,100.00
2023-04-25T23:02:45.711Z,100.00
2023-04-25T23:05:14.327Z,100.00
2023-04-25T23:07:42.391Z,100.00
2023-04-25T23:10:12.222Z,100.00
2023-04-25T23:12:40.282Z,100.00
2023-04-25T23:15:10.125Z,100.00
2023-04-25T23:17:38.265Z,100.00
2023-04-25T23:20:07.823Z,100.00
2023-04-25T23:22:36.190Z,100.00
2023-04-25T23:25:04.211Z,100.00
2023-04-25T23:27:33.516Z,100.00
2023-04-25T23:30:01.508Z,100.00
2023-04-25T23:32:29.506Z,100.00
2023-04-25T23:34:57.709Z,100.00
2023-04-25T23:37:25.733Z,100.00
2023-04-25T23:39:53.699Z,100.00
2023-04-25T23:42:21.714Z,100.00
2023-04-25T23:44:51.039Z,100.00
2023-04-25T23:47:19.145Z,100.00
2023-04-25T23:49:47.082Z,100.00
2023-04-25T23:52:14.988Z,100.00
2023-04-25T23:54:42.968Z,100.00
2023-04-25T23:57:12.153Z,100.00
2023-04-25T23:59:40.194Z,100.00
